sensor_id;sensor_type;location;lat;lon;timestamp;temperature;humidity
51476;DHT22;37554;50.362;7.568;2023-03-04T00:01:58;13.60;41.00
51476;DHT22;37554;50.362;7.568;2023-03-04T00:04:24;13.60;41.00
51476;DHT22;37554;50.362;7.568;2023-03-04T00:06:50;13.60;41.00
51476;DHT22;37554;50.362;7.568;2023-03-04T00:09:15;13.50;41.10
51476;DHT22;37554;50.362;7.568;2023-03-04T00:11:41;13.50;41.10
51476;DHT22;37554;50.362;7.568;2023-03-04T00:14:06;13.50;41.20
51476;DHT22;37554;50.362;7.568;2023-03-04T00:16:32;13.40;41.20
51476;DHT22;37554;50.362;7.568;2023-03-04T00:18:58;13.40;41.20
51476;DHT22;37554;50.362;7.568;2023-03-04T00:21:23;13.50;41.30
51476;DHT22;37554;50.362;7.568;2023-03-04T00:23:50;13.40;41.20
51476;DHT22;37554;50.362;7.568;2023-03-04T00:26:15;13.40;41.30
51476;DHT22;37554;50.362;7.568;2023-03-04T00:28:41;13.40;41.30
51476;DHT22;37554;50.362;7.568;2023-03-04T00:31:07;13.40;41.40
51476;DHT22;37554;50.362;7.568;2023-03-04T00:33:33;13.30;41.40
51476;DHT22;37554;50.362;7.568;2023-03-04T00:35:59;13.30;41.40
51476;DHT22;37554;50.362;7.568;2023-03-04T00:38:25;13.30;41.40
51476;DHT22;37554;50.362;7.568;2023-03-04T00:40:51;13.30;41.30
51476;DHT22;37554;50.362;7.568;2023-03-04T00:43:17;13.30;41.40
51476;DHT22;37554;50.362;7.568;2023-03-04T00:45:42;13.30;41.40
51476;DHT22;37554;50.362;7.568;2023-03-04T00:48:08;13.30;41.50
51476;DHT22;37554;50.362;7.568;2023-03-04T00:50:34;13.30;41.50
51476;DHT22;37554;50.362;7.568;2023-03-04T00:52:59;13.20;41.40
51476;DHT22;37554;50.362;7.568;2023-03-04T00:55:26;13.20;41.50
51476;DHT22;37554;50.362;7.568;2023-03-04T00:57:51;13.20;41.50
51476;DHT22;37554;50.362;7.568;2023-03-04T01:00:17;13.20;41.60
51476;DHT22;37554;50.362;7.568;2023-03-04T01:02:43;13.10;41.60
51476;DHT22;37554;50.362;7.568;2023-03-04T01:05:09;13.10;41.60
51476;DHT22;37554;50.362;7.568;2023-03-04T01:07:35;13.10;41.70
51476;DHT22;37554;50.362;7.568;2023-03-04T01:10:01;13.10;41.70
51476;DHT22;37554;50.362;7.568;2023-03-04T01:12:27;13.10;41.70
51476;DHT22;37554;50.362;7.568;2023-03-04T01:14:53;13.10;41.60
51476;DHT22;37554;50.362;7.568;2023-03-04T01:17:19;13.10;41.70
51476;DHT22;37554;50.362;7.568;2023-03-04T01:19:45;13.10;41.70
51476;DHT22;37554;50.362;7.568;2023-03-04T01:22:10;13.10;41.70
51476;DHT22;37554;50.362;7.568;2023-03-04T01:24:38;13.10;41.70
51476;DHT22;37554;50.362;7.568;2023-03-04T01:27:03;13.10;41.70
51476;DHT22;37554;50.362;7.568;2023-03-04T01:29:29;13.00;41.70
51476;DHT22;37554;50.362;7.568;2023-03-04T01:31:54;13.00;41.70
51476;DHT22;37554;50.362;7.568;2023-03-04T01:34:20;13.00;41.70
51476;DHT22;37554;50.362;7.568;2023-03-04T01:36:46;13.00;41.70
51476;DHT22;37554;50.362;7.568;2023-03-04T01:39:11;13.00;41.80
51476;DHT22;37554;50.362;7.568;2023-03-04T01:41:37;13.00;41.70
51476;DHT22;37554;50.362;7.568;2023-03-04T01:44:03;13.00;41.70
51476;DHT22;37554;50.362;7.568;2023-03-04T01:46:29;13.00;41.70
51476;DHT22;37554;50.362;7.568;2023-03-04T01:48:55;12.90;41.80
51476;DHT22;37554;50.362;7.568;2023-03-04T01:51:22;12.90;41.80
51476;DHT22;37554;50.362;7.568;2023-03-04T01:53:49;12.90;41.80
51476;DHT22;37554;50.362;7.568;2023-03-04T01:56:38;12.90;41.80
51476;DHT22;37554;50.362;7.568;2023-03-04T01:59:13;12.90;42.10
51476;DHT22;37554;50.362;7.568;2023-03-04T02:01:43;12.90;42.00
51476;DHT22;37554;50.362;7.568;2023-03-04T02:04:09;12.80;41.90
51476;DHT22;37554;50.362;7.568;2023-03-04T02:06:37;12.90;42.00
51476;DHT22;37554;50.362;7.568;2023-03-04T02:09:04;12.80;42.00
51476;DHT22;37554;50.362;7.568;2023-03-04T02:11:31;12.80;42.00
51476;DHT22;37554;50.362;7.568;2023-03-04T02:13:57;12.80;42.00
51476;DHT22;37554;50.362;7.568;2023-03-04T02:16:23;12.80;42.00
51476;DHT22;37554;50.362;7.568;2023-03-04T02:18:49;12.80;42.10
51476;DHT22;37554;50.362;7.568;2023-03-04T02:24:12;12.80;42.10
51476;DHT22;37554;50.362;7.568;2023-03-04T02:26:40;12.80;42.30
51476;DHT22;37554;50.362;7.568;2023-03-04T02:29:12;12.70;42.10
51476;DHT22;37554;50.362;7.568;2023-03-04T02:31:46;12.70;42.10
51476;DHT22;37554;50.362;7.568;2023-03-04T02:34:19;12.70;42.30
51476;DHT22;37554;50.362;7.568;2023-03-04T02:36:46;12.70;42.30
51476;DHT22;37554;50.362;7.568;2023-03-04T02:39:32;12.70;42.30
51476;DHT22;37554;50.362;7.568;2023-03-04T02:41:59;12.70;42.60
51476;DHT22;37554;50.362;7.568;2023-03-04T02:44:28;12.60;42.30
51476;DHT22;37554;50.362;7.568;2023-03-04T02:46:54;12.60;42.40
51476;DHT22;37554;50.362;7.568;2023-03-04T02:49:21;12.70;42.40
51476;DHT22;37554;50.362;7.568;2023-03-04T02:52:05;12.60;42.30
51476;DHT22;37554;50.362;7.568;2023-03-04T02:54:32;12.70;42.50
51476;DHT22;37554;50.362;7.568;2023-03-04T02:57:02;12.60;42.30
51476;DHT22;37554;50.362;7.568;2023-03-04T02:59:28;12.60;42.30
51476;DHT22;37554;50.362;7.568;2023-03-04T03:01:54;12.60;42.50
51476;DHT22;37554;50.362;7.568;2023-03-04T03:04:21;12.60;42.60
51476;DHT22;37554;50.362;7.568;2023-03-04T03:06:47;12.60;42.60
51476;DHT22;37554;50.362;7.568;2023-03-04T03:09:12;12.60;42.60
51476;DHT22;37554;50.362;7.568;2023-03-04T03:11:38;12.60;42.60
51476;DHT22;37554;50.362;7.568;2023-03-04T03:14:04;12.50;42.60
51476;DHT22;37554;50.362;7.568;2023-03-04T03:16:30;12.50;42.60
51476;DHT22;37554;50.362;7.568;2023-03-04T03:18:56;12.50;42.70
51476;DHT22;37554;50.362;7.568;2023-03-04T03:21:22;12.50;42.70
51476;DHT22;37554;50.362;7.568;2023-03-04T03:23:48;12.50;42.70
51476;DHT22;37554;50.362;7.568;2023-03-04T03:26:13;12.50;42.70
51476;DHT22;37554;50.362;7.568;2023-03-04T03:28:39;12.50;42.70
51476;DHT22;37554;50.362;7.568;2023-03-04T03:31:05;12.50;42.70
51476;DHT22;37554;50.362;7.568;2023-03-04T03:33:31;12.50;42.90
51476;DHT22;37554;50.362;7.568;2023-03-04T03:35:56;12.50;42.90
51476;DHT22;37554;50.362;7.568;2023-03-04T03:38:22;12.50;42.90
51476;DHT22;37554;50.362;7.568;2023-03-04T03:40:47;12.50;42.90
51476;DHT22;37554;50.362;7.568;2023-03-04T03:43:13;12.50;42.90
51476;DHT22;37554;50.362;7.568;2023-03-04T03:45:39;12.40;42.90
51476;DHT22;37554;50.362;7.568;2023-03-04T03:48:05;12.40;42.90
51476;DHT22;37554;50.362;7.568;2023-03-04T03:50:30;12.40;43.00
51476;DHT22;37554;50.362;7.568;2023-03-04T03:52:56;12.40;42.90
51476;DHT22;37554;50.362;7.568;2023-03-04T03:55:22;12.40;43.00
51476;DHT22;37554;50.362;7.568;2023-03-04T03:57:47;12.40;43.10
51476;DHT22;37554;50.362;7.568;2023-03-04T04:00:14;12.40;43.00
51476;DHT22;37554;50.362;7.568;2023-03-04T04:02:41;12.40;43.10
51476;DHT22;37554;50.362;7.568;2023-03-04T04:05:07;12.30;43.10
51476;DHT22;37554;50.362;7.568;2023-03-04T04:07:34;12.40;43.30
51476;DHT22;37554;50.362;7.568;2023-03-04T04:10:00;12.30;43.10
51476;DHT22;37554;50.362;7.568;2023-03-04T04:12:25;12.40;43.20
51476;DHT22;37554;50.362;7.568;2023-03-04T04:14:51;12.30;43.10
51476;DHT22;37554;50.362;7.568;2023-03-04T04:17:17;12.30;43.10
51476;DHT22;37554;50.362;7.568;2023-03-04T04:19:42;12.30;43.20
51476;DHT22;37554;50.362;7.568;2023-03-04T04:22:13;12.30;43.20
51476;DHT22;37554;50.362;7.568;2023-03-04T04:24:40;12.30;43.20
51476;DHT22;37554;50.362;7.568;2023-03-04T04:27:05;12.30;43.20
51476;DHT22;37554;50.362;7.568;2023-03-04T04:29:31;12.30;43.30
51476;DHT22;37554;50.362;7.568;2023-03-04T04:31:57;12.30;43.40
51476;DHT22;37554;50.362;7.568;2023-03-04T04:34:23;12.30;43.40
51476;DHT22;37554;50.362;7.568;2023-03-04T04:36:49;12.30;43.40
51476;DHT22;37554;50.362;7.568;2023-03-04T04:39:14;12.30;43.40
51476;DHT22;37554;50.362;7.568;2023-03-04T04:41:41;12.30;43.40
51476;DHT22;37554;50.362;7.568;2023-03-04T04:44:08;12.30;43.50
51476;DHT22;37554;50.362;7.568;2023-03-04T04:46:34;12.30;43.50
51476;DHT22;37554;50.362;7.568;2023-03-04T04:49:00;12.30;43.50
51476;DHT22;37554;50.362;7.568;2023-03-04T04:51:26;12.30;43.60
51476;DHT22;37554;50.362;7.568;2023-03-04T04:53:52;12.30;43.50
51476;DHT22;37554;50.362;7.568;2023-03-04T04:56:21;12.30;43.60
51476;DHT22;37554;50.362;7.568;2023-03-04T04:58:47;12.30;43.60
51476;DHT22;37554;50.362;7.568;2023-03-04T05:01:14;12.30;43.70
51476;DHT22;37554;50.362;7.568;2023-03-04T05:03:40;12.30;43.80
51476;DHT22;37554;50.362;7.568;2023-03-04T05:06:07;12.30;43.70
51476;DHT22;37554;50.362;7.568;2023-03-04T05:08:34;12.20;43.80
51476;DHT22;37554;50.362;7.568;2023-03-04T05:11:00;12.20;43.90
51476;DHT22;37554;50.362;7.568;2023-03-04T05:13:26;12.20;44.00
51476;DHT22;37554;50.362;7.568;2023-03-04T05:15:53;12.30;44.00
51476;DHT22;37554;50.362;7.568;2023-03-04T05:18:21;12.20;44.00
51476;DHT22;37554;50.362;7.568;2023-03-04T05:20:56;12.20;44.00
51476;DHT22;37554;50.362;7.568;2023-03-04T05:23:22;12.20;44.10
51476;DHT22;37554;50.362;7.568;2023-03-04T05:25:48;12.20;44.20
51476;DHT22;37554;50.362;7.568;2023-03-04T05:28:14;12.20;44.30
51476;DHT22;37554;50.362;7.568;2023-03-04T05:30:41;12.20;44.30
51476;DHT22;37554;50.362;7.568;2023-03-04T05:33:08;12.10;44.30
51476;DHT22;37554;50.362;7.568;2023-03-04T05:35:35;12.10;44.50
51476;DHT22;37554;50.362;7.568;2023-03-04T05:38:02;12.20;44.60
51476;DHT22;37554;50.362;7.568;2023-03-04T05:40:28;12.20;44.50
51476;DHT22;37554;50.362;7.568;2023-03-04T05:42:54;12.20;44.50
51476;DHT22;37554;50.362;7.568;2023-03-04T05:45:21;12.30;44.60
51476;DHT22;37554;50.362;7.568;2023-03-04T05:47:46;12.30;44.60
51476;DHT22;37554;50.362;7.568;2023-03-04T05:50:12;12.40;44.60
51476;DHT22;37554;50.362;7.568;2023-03-04T05:52:38;12.40;44.50
51476;DHT22;37554;50.362;7.568;2023-03-04T05:55:04;12.40;44.60
51476;DHT22;37554;50.362;7.568;2023-03-04T05:57:29;12.40;44.60
51476;DHT22;37554;50.362;7.568;2023-03-04T05:59:55;12.40;44.50
51476;DHT22;37554;50.362;7.568;2023-03-04T06:02:20;12.50;44.50
51476;DHT22;37554;50.362;7.568;2023-03-04T06:04:46;12.50;44.40
51476;DHT22;37554;50.362;7.568;2023-03-04T06:07:12;12.50;44.50
51476;DHT22;37554;50.362;7.568;2023-03-04T06:09:37;12.50;44.60
51476;DHT22;37554;50.362;7.568;2023-03-04T06:12:03;12.50;44.60
51476;DHT22;37554;50.362;7.568;2023-03-04T06:14:29;12.60;44.60
51476;DHT22;37554;50.362;7.568;2023-03-04T06:16:54;12.60;44.70
51476;DHT22;37554;50.362;7.568;2023-03-04T06:19:20;12.60;44.70
51476;DHT22;37554;50.362;7.568;2023-03-04T06:21:46;12.60;44.70
51476;DHT22;37554;50.362;7.568;2023-03-04T06:24:11;12.60;44.70
51476;DHT22;37554;50.362;7.568;2023-03-04T06:26:37;12.60;44.70
51476;DHT22;37554;50.362;7.568;2023-03-04T06:29:04;12.60;44.70
51476;DHT22;37554;50.362;7.568;2023-03-04T06:31:30;12.70;44.80
51476;DHT22;37554;50.362;7.568;2023-03-04T06:33:55;12.70;45.40
51476;DHT22;37554;50.362;7.568;2023-03-04T06:36:21;12.70;44.70
51476;DHT22;37554;50.362;7.568;2023-03-04T06:38:47;12.70;44.80
51476;DHT22;37554;50.362;7.568;2023-03-04T06:41:12;12.70;44.80
51476;DHT22;37554;50.362;7.568;2023-03-04T06:43:38;12.70;44.80
51476;DHT22;37554;50.362;7.568;2023-03-04T06:46:05;12.70;44.80
51476;DHT22;37554;50.362;7.568;2023-03-04T06:48:31;12.80;44.80
51476;DHT22;37554;50.362;7.568;2023-03-04T06:50:57;12.80;44.80
51476;DHT22;37554;50.362;7.568;2023-03-04T06:53:22;12.70;44.80
51476;DHT22;37554;50.362;7.568;2023-03-04T06:55:48;12.80;44.90
51476;DHT22;37554;50.362;7.568;2023-03-04T06:58:14;12.80;44.90
51476;DHT22;37554;50.362;7.568;2023-03-04T07:00:42;12.80;44.90
51476;DHT22;37554;50.362;7.568;2023-03-04T07:03:10;12.80;44.90
51476;DHT22;37554;50.362;7.568;2023-03-04T07:05:37;12.80;44.90
51476;DHT22;37554;50.362;7.568;2023-03-04T07:08:02;12.80;44.90
51476;DHT22;37554;50.362;7.568;2023-03-04T07:10:28;12.80;45.00
51476;DHT22;37554;50.362;7.568;2023-03-04T07:12:54;12.80;45.00
51476;DHT22;37554;50.362;7.568;2023-03-04T07:15:20;12.80;45.00
51476;DHT22;37554;50.362;7.568;2023-03-04T07:17:45;12.80;44.90
51476;DHT22;37554;50.362;7.568;2023-03-04T07:20:11;12.90;44.90
51476;DHT22;37554;50.362;7.568;2023-03-04T07:22:37;12.90;44.90
51476;DHT22;37554;50.362;7.568;2023-03-04T07:25:03;12.90;44.90
51476;DHT22;37554;50.362;7.568;2023-03-04T07:27:29;12.90;44.90
51476;DHT22;37554;50.362;7.568;2023-03-04T07:29:55;12.90;44.90
51476;DHT22;37554;50.362;7.568;2023-03-04T07:32:20;12.90;44.90
51476;DHT22;37554;50.362;7.568;2023-03-04T07:34:46;12.90;44.80
51476;DHT22;37554;50.362;7.568;2023-03-04T07:37:11;13.00;44.90
51476;DHT22;37554;50.362;7.568;2023-03-04T07:39:37;12.90;44.90
51476;DHT22;37554;50.362;7.568;2023-03-04T07:42:06;12.70;44.40
51476;DHT22;37554;50.362;7.568;2023-03-04T07:44:32;12.20;44.70
51476;DHT22;37554;50.362;7.568;2023-03-04T07:46:57;11.80;45.40
51476;DHT22;37554;50.362;7.568;2023-03-04T07:49:23;11.60;46.10
51476;DHT22;37554;50.362;7.568;2023-03-04T07:51:49;11.80;46.80
51476;DHT22;37554;50.362;7.568;2023-03-04T07:54:14;12.00;46.40
51476;DHT22;37554;50.362;7.568;2023-03-04T07:56:40;12.40;46.30
51476;DHT22;37554;50.362;7.568;2023-03-04T07:59:06;12.70;45.90
51476;DHT22;37554;50.362;7.568;2023-03-04T08:01:34;12.80;45.40
51476;DHT22;37554;50.362;7.568;2023-03-04T08:04:12;13.00;45.20
51476;DHT22;37554;50.362;7.568;2023-03-04T08:06:47;13.20;44.90
51476;DHT22;37554;50.362;7.568;2023-03-04T08:09:13;13.30;44.70
51476;DHT22;37554;50.362;7.568;2023-03-04T08:11:51;13.40;44.60
51476;DHT22;37554;50.362;7.568;2023-03-04T08:14:16;13.50;44.50
51476;DHT22;37554;50.362;7.568;2023-03-04T08:16:42;13.60;44.30
51476;DHT22;37554;50.362;7.568;2023-03-04T08:19:17;13.70;44.20
51476;DHT22;37554;50.362;7.568;2023-03-04T08:21:52;13.70;44.20
51476;DHT22;37554;50.362;7.568;2023-03-04T08:24:17;13.70;44.20
51476;DHT22;37554;50.362;7.568;2023-03-04T08:26:46;13.70;44.10
51476;DHT22;37554;50.362;7.568;2023-03-04T08:29:18;13.80;44.40
51476;DHT22;37554;50.362;7.568;2023-03-04T08:31:46;13.80;44.70
51476;DHT22;37554;50.362;7.568;2023-03-04T08:34:16;13.70;44.80
51476;DHT22;37554;50.362;7.568;2023-03-04T08:36:45;13.70;45.10
51476;DHT22;37554;50.362;7.568;2023-03-04T08:39:16;13.70;45.30
51476;DHT22;37554;50.362;7.568;2023-03-04T08:41:51;13.70;45.30
51476;DHT22;37554;50.362;7.568;2023-03-04T08:44:17;13.60;45.50
51476;DHT22;37554;50.362;7.568;2023-03-04T08:46:43;13.60;45.60
51476;DHT22;37554;50.362;7.568;2023-03-04T08:49:15;13.60;45.80
51476;DHT22;37554;50.362;7.568;2023-03-04T08:51:41;13.60;45.80
51476;DHT22;37554;50.362;7.568;2023-03-04T08:54:07;13.60;45.70
51476;DHT22;37554;50.362;7.568;2023-03-04T08:56:35;13.70;45.70
51476;DHT22;37554;50.362;7.568;2023-03-04T08:59:01;13.70;45.60
51476;DHT22;37554;50.362;7.568;2023-03-04T09:01:30;13.70;45.60
51476;DHT22;37554;50.362;7.568;2023-03-04T09:03:55;13.70;45.50
51476;DHT22;37554;50.362;7.568;2023-03-04T09:06:21;13.70;45.60
51476;DHT22;37554;50.362;7.568;2023-03-04T09:08:47;13.70;45.50
51476;DHT22;37554;50.362;7.568;2023-03-04T09:11:12;13.70;45.50
51476;DHT22;37554;50.362;7.568;2023-03-04T09:13:38;13.70;45.50
51476;DHT22;37554;50.362;7.568;2023-03-04T09:16:09;13.70;45.50
51476;DHT22;37554;50.362;7.568;2023-03-04T09:18:39;13.70;45.40
51476;DHT22;37554;50.362;7.568;2023-03-04T09:21:09;13.70;45.40
51476;DHT22;37554;50.362;7.568;2023-03-04T09:23:55;13.70;45.50
51476;DHT22;37554;50.362;7.568;2023-03-04T09:26:27;13.80;45.80
51476;DHT22;37554;50.362;7.568;2023-03-04T09:28:58;13.80;45.60
51476;DHT22;37554;50.362;7.568;2023-03-04T09:31:25;13.80;45.60
51476;DHT22;37554;50.362;7.568;2023-03-04T09:33:52;13.80;45.60
51476;DHT22;37554;50.362;7.568;2023-03-04T09:36:18;13.80;45.60
51476;DHT22;37554;50.362;7.568;2023-03-04T09:38:45;13.80;45.70
51476;DHT22;37554;50.362;7.568;2023-03-04T09:44:29;13.80;45.90
51476;DHT22;37554;50.362;7.568;2023-03-04T09:47:03;13.80;45.90
51476;DHT22;37554;50.362;7.568;2023-03-04T09:49:33;13.80;45.70
51476;DHT22;37554;50.362;7.568;2023-03-04T09:52:09;13.80;45.80
51476;DHT22;37554;50.362;7.568;2023-03-04T10:00:57;13.90;45.90
51476;DHT22;37554;50.362;7.568;2023-03-04T10:06:39;13.90;46.80
51476;DHT22;37554;50.362;7.568;2023-03-04T10:12:10;13.90;46.00
51476;DHT22;37554;50.362;7.568;2023-03-04T10:14:50;14.00;45.70
51476;DHT22;37554;50.362;7.568;2023-03-04T10:17:37;14.00;45.80
51476;DHT22;37554;50.362;7.568;2023-03-04T10:22:44;14.10;45.70
51476;DHT22;37554;50.362;7.568;2023-03-04T10:28:14;14.10;45.90
51476;DHT22;37554;50.362;7.568;2023-03-04T10:33:27;14.10;45.90
51476;DHT22;37554;50.362;7.568;2023-03-04T10:38:32;14.10;45.80
51476;DHT22;37554;50.362;7.568;2023-03-04T10:40:59;14.10;45.80
51476;DHT22;37554;50.362;7.568;2023-03-04T10:43:25;14.20;45.80
51476;DHT22;37554;50.362;7.568;2023-03-04T10:45:57;14.20;45.70
51476;DHT22;37554;50.362;7.568;2023-03-04T10:48:25;14.20;45.60
51476;DHT22;37554;50.362;7.568;2023-03-04T10:50:51;14.30;45.60
51476;DHT22;37554;50.362;7.568;2023-03-04T10:53:25;14.30;45.50
51476;DHT22;37554;50.362;7.568;2023-03-04T10:55:53;14.30;45.50
51476;DHT22;37554;50.362;7.568;2023-03-04T10:58:20;14.30;45.50
51476;DHT22;37554;50.362;7.568;2023-03-04T11:00:59;14.30;45.60
51476;DHT22;37554;50.362;7.568;2023-03-04T11:08:33;14.40;45.60
51476;DHT22;37554;50.362;7.568;2023-03-04T11:14:46;14.40;45.50
51476;DHT22;37554;50.362;7.568;2023-03-04T11:17:19;14.40;45.50
51476;DHT22;37554;50.362;7.568;2023-03-04T11:22:41;14.60;45.30
51476;DHT22;37554;50.362;7.568;2023-03-04T11:25:30;14.70;45.00
51476;DHT22;37554;50.362;7.568;2023-03-04T11:28:21;14.90;45.40
51476;DHT22;37554;50.362;7.568;2023-03-04T11:30:54;15.10;44.50
51476;DHT22;37554;50.362;7.568;2023-03-04T11:33:35;15.40;44.10
51476;DHT22;37554;50.362;7.568;2023-03-04T11:38:44;15.70;43.60
51476;DHT22;37554;50.362;7.568;2023-03-04T11:41:12;15.70;43.60
51476;DHT22;37554;50.362;7.568;2023-03-04T11:43:42;15.70;43.70
51476;DHT22;37554;50.362;7.568;2023-03-04T12:06:34;15.20;44.70
51476;DHT22;37554;50.362;7.568;2023-03-04T12:19:57;15.30;44.30
51476;DHT22;37554;50.362;7.568;2023-03-04T12:27:58;15.30;44.60
51476;DHT22;37554;50.362;7.568;2023-03-04T12:31:01;15.30;44.40
51476;DHT22;37554;50.362;7.568;2023-03-04T12:44:18;15.60;44.20
51476;DHT22;37554;50.362;7.568;2023-03-04T12:52:55;15.60;44.30
51476;DHT22;37554;50.362;7.568;2023-03-04T12:55:31;15.60;44.50
51476;DHT22;37554;50.362;7.568;2023-03-04T12:58:00;15.60;44.40
51476;DHT22;37554;50.362;7.568;2023-03-04T13:00:50;15.60;44.30
51476;DHT22;37554;50.362;7.568;2023-03-04T13:06:27;15.60;44.40
51476;DHT22;37554;50.362;7.568;2023-03-04T13:12:39;15.60;44.60
51476;DHT22;37554;50.362;7.568;2023-03-04T13:17:35;15.60;44.60
51476;DHT22;37554;50.362;7.568;2023-03-04T13:25:47;15.50;44.50
51476;DHT22;37554;50.362;7.568;2023-03-04T13:41:12;15.40;44.70
51476;DHT22;37554;50.362;7.568;2023-03-04T13:43:46;15.40;44.80
51476;DHT22;37554;50.362;7.568;2023-03-04T13:54:10;15.30;45.10
51476;DHT22;37554;50.362;7.568;2023-03-04T13:56:47;15.30;45.00
51476;DHT22;37554;50.362;7.568;2023-03-04T13:59:28;15.30;45.10
51476;DHT22;37554;50.362;7.568;2023-03-04T14:01:55;15.30;45.00
51476;DHT22;37554;50.362;7.568;2023-03-04T14:04:39;15.30;45.10
51476;DHT22;37554;50.362;7.568;2023-03-04T14:07:18;15.30;45.20
51476;DHT22;37554;50.362;7.568;2023-03-04T14:10:06;15.20;45.20
51476;DHT22;37554;50.362;7.568;2023-03-04T14:13:03;15.20;45.30
51476;DHT22;37554;50.362;7.568;2023-03-04T14:15:29;15.20;45.30
51476;DHT22;37554;50.362;7.568;2023-03-04T14:18:01;15.20;45.20
51476;DHT22;37554;50.362;7.568;2023-03-04T14:20:28;15.20;45.30
51476;DHT22;37554;50.362;7.568;2023-03-04T14:22:55;15.10;45.30
51476;DHT22;37554;50.362;7.568;2023-03-04T14:25:27;15.20;45.40
51476;DHT22;37554;50.362;7.568;2023-03-04T14:28:19;15.10;45.40
51476;DHT22;37554;50.362;7.568;2023-03-04T14:30:53;15.10;45.60
51476;DHT22;37554;50.362;7.568;2023-03-04T14:33:29;15.10;45.50
51476;DHT22;37554;50.362;7.568;2023-03-04T14:35:58;15.10;45.60
51476;DHT22;37554;50.362;7.568;2023-03-04T14:40:54;15.00;45.50
51476;DHT22;37554;50.362;7.568;2023-03-04T14:43:21;15.00;45.60
51476;DHT22;37554;50.362;7.568;2023-03-04T14:45:52;15.00;45.60
51476;DHT22;37554;50.362;7.568;2023-03-04T14:48:33;15.00;45.60
51476;DHT22;37554;50.362;7.568;2023-03-04T14:51:00;15.10;45.60
51476;DHT22;37554;50.362;7.568;2023-03-04T14:53:31;15.20;45.40
51476;DHT22;37554;50.362;7.568;2023-03-04T14:56:05;15.20;45.30
51476;DHT22;37554;50.362;7.568;2023-03-04T14:58:32;15.20;45.40
51476;DHT22;37554;50.362;7.568;2023-03-04T15:01:37;15.20;45.40
51476;DHT22;37554;50.362;7.568;2023-03-04T15:04:08;15.20;45.60
51476;DHT22;37554;50.362;7.568;2023-03-04T15:06:47;15.20;45.50
51476;DHT22;37554;50.362;7.568;2023-03-04T15:09:25;15.10;45.50
51476;DHT22;37554;50.362;7.568;2023-03-04T15:12:05;15.10;45.70
51476;DHT22;37554;50.362;7.568;2023-03-04T15:21:37;15.00;46.00
51476;DHT22;37554;50.362;7.568;2023-03-04T15:23:36;15.00;45.90
51476;DHT22;37554;50.362;7.568;2023-03-04T15:26:04;15.00;45.90
51476;DHT22;37554;50.362;7.568;2023-03-04T15:28:34;15.00;45.80
51476;DHT22;37554;50.362;7.568;2023-03-04T15:31:00;15.00;45.90
51476;DHT22;37554;50.362;7.568;2023-03-04T15:33:25;15.00;45.90
51476;DHT22;37554;50.362;7.568;2023-03-04T15:35:57;15.00;45.90
51476;DHT22;37554;50.362;7.568;2023-03-04T15:38:24;15.00;46.00
51476;DHT22;37554;50.362;7.568;2023-03-04T15:40:50;15.00;46.00
51476;DHT22;37554;50.362;7.568;2023-03-04T15:43:18;14.90;45.90
51476;DHT22;37554;50.362;7.568;2023-03-04T15:45:45;14.90;45.90
51476;DHT22;37554;50.362;7.568;2023-03-04T15:48:12;14.90;46.60
51476;DHT22;37554;50.362;7.568;2023-03-04T15:50:59;14.80;46.10
51476;DHT22;37554;50.362;7.568;2023-03-04T15:53:26;14.80;46.20
51476;DHT22;37554;50.362;7.568;2023-03-04T15:55:52;14.80;46.20
51476;DHT22;37554;50.362;7.568;2023-03-04T15:58:18;14.80;46.20
51476;DHT22;37554;50.362;7.568;2023-03-04T16:00:44;14.80;46.20
51476;DHT22;37554;50.362;7.568;2023-03-04T16:03:15;14.80;46.30
51476;DHT22;37554;50.362;7.568;2023-03-04T16:05:42;14.70;46.30
51476;DHT22;37554;50.362;7.568;2023-03-04T16:08:13;14.70;46.30
51476;DHT22;37554;50.362;7.568;2023-03-04T16:10:40;14.70;46.40
51476;DHT22;37554;50.362;7.568;2023-03-04T16:13:12;14.70;46.40
51476;DHT22;37554;50.362;7.568;2023-03-04T16:15:39;14.70;46.50
51476;DHT22;37554;50.362;7.568;2023-03-04T16:18:04;14.70;46.50
51476;DHT22;37554;50.362;7.568;2023-03-04T16:20:32;14.60;46.50
51476;DHT22;37554;50.362;7.568;2023-03-04T16:22:59;14.60;46.50
51476;DHT22;37554;50.362;7.568;2023-03-04T16:25:26;14.60;46.60
51476;DHT22;37554;50.362;7.568;2023-03-04T16:27:52;14.60;46.70
51476;DHT22;37554;50.362;7.568;2023-03-04T16:30:23;14.50;46.60
51476;DHT22;37554;50.362;7.568;2023-03-04T16:32:49;14.50;46.70
51476;DHT22;37554;50.362;7.568;2023-03-04T16:35:15;14.50;46.80
51476;DHT22;37554;50.362;7.568;2023-03-04T16:37:42;14.50;46.80
51476;DHT22;37554;50.362;7.568;2023-03-04T16:40:14;14.50;46.80
51476;DHT22;37554;50.362;7.568;2023-03-04T16:42:40;14.40;46.90
51476;DHT22;37554;50.362;7.568;2023-03-04T16:45:14;14.40;46.90
51476;DHT22;37554;50.362;7.568;2023-03-04T16:47:40;14.40;47.00
51476;DHT22;37554;50.362;7.568;2023-03-04T16:50:06;14.40;47.10
51476;DHT22;37554;50.362;7.568;2023-03-04T16:52:32;14.30;47.00
51476;DHT22;37554;50.362;7.568;2023-03-04T16:54:58;14.40;47.20
51476;DHT22;37554;50.362;7.568;2023-03-04T16:57:24;14.30;47.10
51476;DHT22;37554;50.362;7.568;2023-03-04T16:59:53;14.30;47.10
51476;DHT22;37554;50.362;7.568;2023-03-04T17:02:21;14.30;47.20
51476;DHT22;37554;50.362;7.568;2023-03-04T17:04:48;14.30;47.20
51476;DHT22;37554;50.362;7.568;2023-03-04T17:07:14;14.30;47.30
51476;DHT22;37554;50.362;7.568;2023-03-04T17:09:40;14.20;47.40
51476;DHT22;37554;50.362;7.568;2023-03-04T17:12:09;14.20;47.50
51476;DHT22;37554;50.362;7.568;2023-03-04T17:14:35;14.20;47.50
51476;DHT22;37554;50.362;7.568;2023-03-04T17:17:02;14.10;47.60
51476;DHT22;37554;50.362;7.568;2023-03-04T17:19:28;14.10;47.70
51476;DHT22;37554;50.362;7.568;2023-03-04T17:21:58;14.10;47.70
51476;DHT22;37554;50.362;7.568;2023-03-04T17:24:25;14.10;47.70
51476;DHT22;37554;50.362;7.568;2023-03-04T17:26:50;14.10;47.70
51476;DHT22;37554;50.362;7.568;2023-03-04T17:29:16;14.10;47.80
51476;DHT22;37554;50.362;7.568;2023-03-04T17:31:42;14.10;47.90
51476;DHT22;37554;50.362;7.568;2023-03-04T17:34:08;14.10;47.90
51476;DHT22;37554;50.362;7.568;2023-03-04T17:36:34;14.00;47.80
51476;DHT22;37554;50.362;7.568;2023-03-04T17:39:00;14.00;47.90
51476;DHT22;37554;50.362;7.568;2023-03-04T17:41:26;14.00;47.90
51476;DHT22;37554;50.362;7.568;2023-03-04T17:43:52;14.00;48.00
51476;DHT22;37554;50.362;7.568;2023-03-04T17:46:24;14.00;48.00
51476;DHT22;37554;50.362;7.568;2023-03-04T17:48:55;14.00;48.10
51476;DHT22;37554;50.362;7.568;2023-03-04T17:51:32;13.90;48.10
51476;DHT22;37554;50.362;7.568;2023-03-04T17:53:58;13.90;48.30
51476;DHT22;37554;50.362;7.568;2023-03-04T17:56:28;13.90;48.20
51476;DHT22;37554;50.362;7.568;2023-03-04T17:58:56;13.90;48.20
51476;DHT22;37554;50.362;7.568;2023-03-04T18:01:22;14.00;48.30